Current Weather Conditions: station 44058

sailwx.info

Wind from 180 at 7 knots gusting 9

Water temperature 5.8° C

Last reported at 2020-Jan-25 13:36 UTC.
Time now 2020-Jan-25 15:05 UTC

Location: N 37°36' W 076°18'.
View on Google Maps.

See reports from other nearby stations

  
Tides and Currents Weather Stations Pressure Air Temp Water Temp Dewpoint Dewpoint Depression Visibility Wind Speed Wind Dir Waves Ship Positions
date/time (UTC)wind fromknots sea level pressurealtimeterstation pressurevisibilityair tempwater tempwave heightnotes
2020-Jan-25 13:36 180 7 gusting 9 5.8
2020-Jan-25 13:30 150 5 gusting 5 5.9
2020-Jan-25 13:06 160 3 gusting 3 5.9
2020-Jan-25 12:48 200 5 gusting 7 5.7
2020-Jan-25 12:30 5.7
2020-Jan-25 12:18 350 1 gusting 1 5.7
2020-Jan-25 11:54 270 3 gusting 3 5.7
2020-Jan-25 11:48 300 3 gusting 3 5.7
2020-Jan-25 11:06 280 3 gusting 5 5.7
2020-Jan-25 11:00 300 3 gusting 3 5.7 0.4
2020-Jan-25 10:36 260 5 gusting 5 5.7
2020-Jan-25 10:24 210 11 gusting 11 5.7
2020-Jan-25 10:12 180 3 gusting 5 5.7
2020-Jan-25 10:06 140 3 gusting 5 5.7
2020-Jan-25 10:00 190 3 gusting 3 5.7 0.4
2020-Jan-25 09:54 160 5 gusting 5 5.7
2020-Jan-25 09:18 170 3 gusting 5 5.7
2020-Jan-25 09:12 170 5 gusting 7 5.7
2020-Jan-25 08:48 150 11 gusting 13 5.8
2020-Jan-25 08:42 160 11 gusting 15 5.8
2020-Jan-25 08:18 150 15 gusting 17 5.8
2020-Jan-25 08:06 120 15 gusting 17 5.8
2020-Jan-25 07:54 120 15 gusting 17 5.8
2020-Jan-25 07:36 120 13 gusting 13 5.8
2020-Jan-25 07:24 170 15 gusting 17 5.8
2020-Jan-25 06:54 080 15 gusting 17 5.8
2020-Jan-25 06:36 180 15 gusting 17 5.7
2020-Jan-25 06:00 140 13 gusting 15 5.7 0.5
2020-Jan-25 05:48 140 13 gusting 15 5.7
2020-Jan-25 05:42 170 15 gusting 19 5.7
2020-Jan-25 05:30 130 17 gusting 19 5.7
2020-Jan-25 05:18 110 13 gusting 13 5.7
2020-Jan-25 04:48 100 11 gusting 13 5.7
2020-Jan-25 04:36 090 13 gusting 13 5.6
2020-Jan-25 04:30 120 13 gusting 13 5.6
2020-Jan-25 04:12 110 11 gusting 13 5.6
2020-Jan-25 04:00 130 11 gusting 13 5.6 0.4
2020-Jan-25 03:42 110 11 gusting 11 5.6
2020-Jan-25 03:30 120 11 gusting 11 5.6
2020-Jan-25 03:24 110 11 gusting 11 5.6
2020-Jan-25 03:18 130 11 gusting 11 5.6
2020-Jan-25 02:36 100 11 gusting 13 5.7
2020-Jan-25 02:18 110 11 gusting 13 5.7
2020-Jan-25 02:06 090 11 gusting 13 5.7
2020-Jan-25 02:00 100 11 gusting 13 5.8 0.4
2020-Jan-25 01:12 110 11 gusting 13 5.9
2020-Jan-25 00:42 090 11 gusting 11 6.1
2020-Jan-25 00:24 050 9 gusting 11 6.1
2020-Jan-25 00:00 0.3
2020-Jan-24 23:00 150 3 gusting 3 6.1 0.3
2020-Jan-24 22:54 130 3 gusting 5 6.1
2020-Jan-24 22:42 100 7 gusting 7 6.0
2020-Jan-24 22:30 110 7 gusting 7 5.8
2020-Jan-24 22:12 120 7 gusting 9 5.7
2020-Jan-24 21:54 090 7 gusting 9 5.8
2020-Jan-24 21:36 090 7 gusting 9 5.9
2020-Jan-24 21:18 090 9 gusting 9 6.0
2020-Jan-24 21:06 100 9 gusting 9 5.9
2020-Jan-24 20:06 120 7 gusting 7 5.7
2020-Jan-24 19:48 120 7 gusting 7 5.7
2020-Jan-24 19:30 100 7 gusting 7 5.9
2020-Jan-24 19:24 110 7 gusting 9 5.8
2020-Jan-24 19:00 100 9 gusting 9 5.7 0.2
2020-Jan-24 18:42 110 3 gusting 5 6.0
2020-Jan-24 18:36 120 3 gusting 3 6.1
2020-Jan-24 18:30 120 3 gusting 3 6.0
2020-Jan-24 17:42 090 3 gusting 9 5.8
2020-Jan-24 17:00 040 1 gusting 3 5.7 0.3
2020-Jan-24 16:24 5.7
2020-Jan-24 16:12 060 5 gusting 7 5.7
2020-Jan-24 16:06 050 7 gusting 7 5.6
2020-Jan-24 16:00 030 7 gusting 9 5.6 0.3
2020-Jan-24 15:30 040 7 gusting 9 5.6
2020-Jan-24 15:12 040 7 gusting 7 5.6
2020-Jan-24 15:06 050 7 gusting 7 5.6
2020-Jan-24 15:00 030 7 gusting 7 5.6 0.3
2020-Jan-24 14:36 020 7 gusting 7 5.6
2020-Jan-24 14:24 010 7 gusting 7 5.6
2020-Jan-24 14:12 020 7 gusting 9 5.6
2020-Jan-24 14:00 030 9 gusting 11 5.6 0.3
2020-Jan-24 13:54 040 9 gusting 11 5.6
2020-Jan-24 13:24 040 11 gusting 13 5.6
2020-Jan-24 12:36 030 9 gusting 11 5.6
2020-Jan-24 12:12 040 9 gusting 11 5.6
2020-Jan-24 11:54 020 9 gusting 9 5.5
2020-Jan-24 11:42 260 7 gusting 9 5.5
2020-Jan-24 11:18 010 9 gusting 13 5.5
2020-Jan-24 10:54 040 11 gusting 13 5.5
2020-Jan-24 10:36 070 11 gusting 11 5.5
2020-Jan-24 10:30 010 11 gusting 13 5.5
2020-Jan-24 10:00 030 11 gusting 13 5.6 0.5
2020-Jan-24 09:30 040 13 gusting 15 5.7
2020-Jan-24 09:18 010 11 gusting 13 5.7
2020-Jan-24 09:00 0.5
2020-Jan-24 08:30 010 11 gusting 15 5.6
2020-Jan-24 08:24 010 11 gusting 13 5.6
2020-Jan-24 08:12 030 11 gusting 13 5.6
2020-Jan-24 07:24 010 9 gusting 11 5.6
2020-Jan-24 07:12 010 11 gusting 11 5.6
2020-Jan-24 07:06 360 11 gusting 11 5.6
2020-Jan-24 06:54 020 9 gusting 11 5.6
2020-Jan-24 05:54 040 9 gusting 11 5.6
2020-Jan-24 04:30 020 9 gusting 9 5.6
2020-Jan-24 04:18 060 7 gusting 9 5.6
2020-Jan-24 03:36 020 9 gusting 9 5.6
2020-Jan-24 03:30 030 9 gusting 11 5.6
2020-Jan-24 03:18 040 9 gusting 11 5.6
2020-Jan-24 03:06 030 9 gusting 11 5.6
2020-Jan-24 03:00 040 9 gusting 11 5.6 0.3
2020-Jan-24 02:48 030 9 gusting 9 5.6
2020-Jan-24 02:24 020 9 gusting 9 5.6
2020-Jan-24 02:18 020 9 gusting 9 5.6
2020-Jan-24 02:06 030 7 gusting 9 5.6
2020-Jan-24 01:48 030 7 gusting 9 5.7
2020-Jan-24 01:18 040 7 gusting 9 5.7
2020-Jan-24 00:48 360 7 gusting 9 5.7
2020-Jan-24 00:30 010 9 gusting 9 5.7
2020-Jan-24 00:24 030 9 gusting 11 5.7
2020-Jan-24 00:18 030 9 gusting 9 5.7
2020-Jan-24 00:12 010 9 gusting 9 5.7
2020-Jan-24 00:00 030 9 gusting 9 5.7 0.3
2020-Jan-23 23:30 030 9 gusting 9 5.8
2020-Jan-23 23:18 030 9 gusting 11 5.8
2020-Jan-23 22:54 040 9 gusting 9 5.9
2020-Jan-23 22:30 030 7 gusting 9 5.9
2020-Jan-23 22:00 0.3
2020-Jan-23 21:36 030 7 gusting 7 5.8
2020-Jan-23 21:30 030 7 gusting 7 5.8
2020-Jan-23 21:24 020 7 gusting 7 5.7
2020-Jan-23 21:12 010 9 gusting 9 5.7
2020-Jan-23 20:48 020 9 gusting 9 5.7
2020-Jan-23 20:36 020 9 gusting 9 5.7
2020-Jan-23 20:18 020 9 gusting 9 5.7
2020-Jan-23 20:06 020 9 gusting 9 5.7
2020-Jan-23 20:00 020 9 gusting 9 5.7 0.6
2020-Jan-23 19:48 020 9 gusting 11 5.7
2020-Jan-23 19:36 010 9 gusting 9 5.7
2020-Jan-23 19:30 360 9 gusting 11 5.7
2020-Jan-23 19:00 030 9 gusting 11 5.6 0.6
2020-Jan-23 18:54 020 9 gusting 11 5.6
2020-Jan-23 18:42 020 9 gusting 9 5.6
2020-Jan-23 18:06 040 9 gusting 9 5.6
2020-Jan-23 18:00 030 7 gusting 9 5.6 0.7
2020-Jan-23 17:48 040 9 gusting 11 5.6
2020-Jan-23 17:30 040 9 gusting 11 5.6
2020-Jan-23 16:48 040 9 gusting 11 5.6
2020-Jan-23 16:18 010 9 gusting 11 5.6
2020-Jan-23 16:00 020 11 gusting 11 5.6 0.4
2020-Jan-23 15:48 350 11 gusting 13 5.6
2020-Jan-23 15:06 040 9 gusting 11 5.6
2020-Jan-23 15:00 020 9 gusting 11 5.6 0.3